Van Cleve, Iowa
Current Conditions -  °F | °C
As of 7:53 PM on Wednesday 17 Dec 2014 (Local Time) from KMIW Reporting Station
Clear Clear  
Wind Chill: 10°   Ceiling: Unl
Heat Index: 17°   Visibility: 10mi
Dew Point: 13°   Wind: 5mph
Humidity: 84%   Direction: 10°N
Pressure: 30.27"   Gusts: NA
Location:  41.9226°N, 93.0682°W
Report Text: KMIW 180153Z AUTO 01004KT 10SM CLR M08/M11 A3027 RMK AO2 SLP270 T10831106
Loading
Personal Weather Stations






























Interactive Weather Map New forecast layout! Learn more

10-Day Weather Forecast

Advertisements
Track Severe Weather on mobile